Terminal Aerodrome Forecast
Issued by NWS Memphis, TN

Home | Current Version | Previous Version | Text Only | Print | Product List | Glossary On
Versions: 1 2 3 4 5 6 7 8 9 10 11 12 13 14 15 16 17 18 19 20 21 22 23 24 25 26 27 28 29 30 31 32 33 34
000
FTUS44 KMEG 052320
TAFMEM
TAF
KMEM 052320Z 0600/0624 21005KT P6SM SCT040 SCT250
      TEMPO 0610/0613 4SM BR BKN006
     FM061400 22007KT P6SM SCT015
     FM061600 22010KT P6SM SCT025 BKN035
     FM061800 22010KT P6SM VCTS SCT025CB BKN035=

USA.gov is the U.S. government's official web portal to all federal, state and local government web resources and services.